sensor_id;sensor_type;location;lat;lon;timestamp;P1;durP1;ratioP1;P2;durP2;ratioP2
28760;SDS011;15917;50.014;8.352;2023-02-13T00:02:15;18.98;;;9.60;;
28760;SDS011;15917;50.014;8.352;2023-02-13T00:04:40;19.83;;;10.13;;
28760;SDS011;15917;50.014;8.352;2023-02-13T00:07:09;19.45;;;10.10;;
28760;SDS011;15917;50.014;8.352;2023-02-13T00:09:36;18.88;;;9.38;;
28760;SDS011;15917;50.014;8.352;2023-02-13T00:12:02;25.42;;;10.68;;
28760;SDS011;15917;50.014;8.352;2023-02-13T00:14:28;20.33;;;9.43;;
28760;SDS011;15917;50.014;8.352;2023-02-13T00:16:54;19.27;;;9.38;;
28760;SDS011;15917;50.014;8.352;2023-02-13T00:19:20;20.77;;;10.15;;
28760;SDS011;15917;50.014;8.352;2023-02-13T00:21:45;18.30;;;9.23;;
28760;SDS011;15917;50.014;8.352;2023-02-13T00:24:11;19.45;;;9.63;;
28760;SDS011;15917;50.014;8.352;2023-02-13T00:26:36;21.35;;;10.50;;
28760;SDS011;15917;50.014;8.352;2023-02-13T00:29:04;18.70;;;10.07;;
28760;SDS011;15917;50.014;8.352;2023-02-13T00:31:30;20.05;;;9.52;;
28760;SDS011;15917;50.014;8.352;2023-02-13T00:33:55;18.52;;;9.15;;
28760;SDS011;15917;50.014;8.352;2023-02-13T00:36:21;19.55;;;10.23;;
28760;SDS011;15917;50.014;8.352;2023-02-13T00:41:15;21.33;;;9.38;;
28760;SDS011;15917;50.014;8.352;2023-02-13T00:43:41;22.33;;;9.88;;
28760;SDS011;15917;50.014;8.352;2023-02-13T00:46:07;18.95;;;9.65;;
28760;SDS011;15917;50.014;8.352;2023-02-13T00:48:33;16.90;;;8.80;;
28760;SDS011;15917;50.014;8.352;2023-02-13T00:50:59;18.75;;;9.45;;
28760;SDS011;15917;50.014;8.352;2023-02-13T00:53:28;21.58;;;9.00;;
28760;SDS011;15917;50.014;8.352;2023-02-13T00:55:54;19.70;;;9.52;;
28760;SDS011;15917;50.014;8.352;2023-02-13T00:58:20;15.77;;;8.27;;
28760;SDS011;15917;50.014;8.352;2023-02-13T01:00:46;21.40;;;10.32;;
28760;SDS011;15917;50.014;8.352;2023-02-13T01:03:12;18.52;;;8.90;;
28760;SDS011;15917;50.014;8.352;2023-02-13T01:05:38;19.83;;;10.05;;
28760;SDS011;15917;50.014;8.352;2023-02-13T01:08:04;19.13;;;9.25;;
28760;SDS011;15917;50.014;8.352;2023-02-13T01:10:31;20.13;;;9.57;;
28760;SDS011;15917;50.014;8.352;2023-02-13T01:12:57;18.67;;;10.45;;
28760;SDS011;15917;50.014;8.352;2023-02-13T01:15:23;20.25;;;9.73;;
28760;SDS011;15917;50.014;8.352;2023-02-13T01:17:48;19.13;;;9.43;;
28760;SDS011;15917;50.014;8.352;2023-02-13T01:20:16;17.60;;;9.65;;
28760;SDS011;15917;50.014;8.352;2023-02-13T01:22:42;22.52;;;10.43;;
28760;SDS011;15917;50.014;8.352;2023-02-13T01:25:08;20.23;;;10.30;;
28760;SDS011;15917;50.014;8.352;2023-02-13T01:27:34;17.42;;;8.90;;
28760;SDS011;15917;50.014;8.352;2023-02-13T01:30:02;22.92;;;10.45;;
28760;SDS011;15917;50.014;8.352;2023-02-13T01:32:29;21.73;;;10.10;;
28760;SDS011;15917;50.014;8.352;2023-02-13T01:34:54;25.42;;;11.48;;
28760;SDS011;15917;50.014;8.352;2023-02-13T01:37:20;21.08;;;9.38;;
28760;SDS011;15917;50.014;8.352;2023-02-13T01:39:46;22.23;;;9.95;;
28760;SDS011;15917;50.014;8.352;2023-02-13T01:42:14;19.08;;;9.65;;
28760;SDS011;15917;50.014;8.352;2023-02-13T01:44:45;17.20;;;8.55;;
28760;SDS011;15917;50.014;8.352;2023-02-13T01:50:07;29.08;;;12.25;;
28760;SDS011;15917;50.014;8.352;2023-02-13T01:52:34;23.85;;;10.10;;
28760;SDS011;15917;50.014;8.352;2023-02-13T01:55:03;23.88;;;11.35;;
28760;SDS011;15917;50.014;8.352;2023-02-13T01:57:30;26.13;;;12.32;;
28760;SDS011;15917;50.014;8.352;2023-02-13T02:00:06;26.67;;;11.32;;
28760;SDS011;15917;50.014;8.352;2023-02-13T02:03:05;25.38;;;10.13;;
28760;SDS011;15917;50.014;8.352;2023-02-13T02:05:39;24.15;;;11.05;;
28760;SDS011;15917;50.014;8.352;2023-02-13T02:08:08;26.42;;;12.00;;
28760;SDS011;15917;50.014;8.352;2023-02-13T02:10:36;29.38;;;12.77;;
28760;SDS011;15917;50.014;8.352;2023-02-13T02:13:05;25.30;;;11.63;;
28760;SDS011;15917;50.014;8.352;2023-02-13T02:15:37;24.45;;;11.35;;
28760;SDS011;15917;50.014;8.352;2023-02-13T02:18:11;30.05;;;12.80;;
28760;SDS011;15917;50.014;8.352;2023-02-13T02:29:39;29.33;;;13.60;;
28760;SDS011;15917;50.014;8.352;2023-02-13T02:32:31;25.40;;;12.40;;
28760;SDS011;15917;50.014;8.352;2023-02-13T02:41:13;24.08;;;10.85;;
28760;SDS011;15917;50.014;8.352;2023-02-13T02:46:39;23.25;;;11.07;;
28760;SDS011;15917;50.014;8.352;2023-02-13T02:49:34;31.73;;;12.27;;
28760;SDS011;15917;50.014;8.352;2023-02-13T02:52:26;25.13;;;11.32;;
28760;SDS011;15917;50.014;8.352;2023-02-13T02:55:15;25.70;;;12.18;;
28760;SDS011;15917;50.014;8.352;2023-02-13T02:58:11;26.92;;;12.90;;
28760;SDS011;15917;50.014;8.352;2023-02-13T03:00:58;28.38;;;12.35;;
28760;SDS011;15917;50.014;8.352;2023-02-13T03:03:44;33.80;;;14.13;;
28760;SDS011;15917;50.014;8.352;2023-02-13T03:06:49;36.13;;;15.10;;
28760;SDS011;15917;50.014;8.352;2023-02-13T03:09:18;33.70;;;14.82;;
28760;SDS011;15917;50.014;8.352;2023-02-13T03:12:06;32.17;;;14.50;;
28760;SDS011;15917;50.014;8.352;2023-02-13T03:14:52;34.03;;;14.27;;
28760;SDS011;15917;50.014;8.352;2023-02-13T03:17:17;35.67;;;15.52;;
28760;SDS011;15917;50.014;8.352;2023-02-13T03:20:07;39.50;;;16.52;;
28760;SDS011;15917;50.014;8.352;2023-02-13T03:23:13;40.00;;;16.25;;
28760;SDS011;15917;50.014;8.352;2023-02-13T03:25:51;36.63;;;16.15;;
28760;SDS011;15917;50.014;8.352;2023-02-13T03:39:47;45.88;;;17.77;;
28760;SDS011;15917;50.014;8.352;2023-02-13T03:42:27;41.65;;;16.67;;
28760;SDS011;15917;50.014;8.352;2023-02-13T03:45:37;40.92;;;18.13;;
28760;SDS011;15917;50.014;8.352;2023-02-13T03:48:16;36.47;;;17.05;;
28760;SDS011;15917;50.014;8.352;2023-02-13T03:51:05;38.95;;;16.08;;
28760;SDS011;15917;50.014;8.352;2023-02-13T03:53:34;43.55;;;16.73;;
28760;SDS011;15917;50.014;8.352;2023-02-13T03:56:02;41.95;;;18.48;;
28760;SDS011;15917;50.014;8.352;2023-02-13T03:58:50;44.75;;;17.88;;
28760;SDS011;15917;50.014;8.352;2023-02-13T04:01:36;38.50;;;16.38;;
28760;SDS011;15917;50.014;8.352;2023-02-13T04:04:05;43.03;;;18.48;;
28760;SDS011;15917;50.014;8.352;2023-02-13T04:06:47;42.50;;;16.30;;
28760;SDS011;15917;50.014;8.352;2023-02-13T04:09:17;37.45;;;16.90;;
28760;SDS011;15917;50.014;8.352;2023-02-13T04:14:20;38.05;;;17.05;;
28760;SDS011;15917;50.014;8.352;2023-02-13T04:16:58;38.75;;;16.55;;
28760;SDS011;15917;50.014;8.352;2023-02-13T04:19:33;39.67;;;18.08;;
28760;SDS011;15917;50.014;8.352;2023-02-13T04:21:59;44.10;;;17.38;;
28760;SDS011;15917;50.014;8.352;2023-02-13T04:24:27;39.22;;;17.70;;
28760;SDS011;15917;50.014;8.352;2023-02-13T04:26:53;38.65;;;17.05;;
28760;SDS011;15917;50.014;8.352;2023-02-13T04:29:20;44.33;;;17.95;;
28760;SDS011;15917;50.014;8.352;2023-02-13T04:31:46;39.70;;;16.98;;
28760;SDS011;15917;50.014;8.352;2023-02-13T04:34:12;36.05;;;15.68;;
28760;SDS011;15917;50.014;8.352;2023-02-13T04:36:38;38.05;;;17.23;;
28760;SDS011;15917;50.014;8.352;2023-02-13T04:39:03;44.85;;;17.98;;
28760;SDS011;15917;50.014;8.352;2023-02-13T04:41:29;44.83;;;17.95;;
28760;SDS011;15917;50.014;8.352;2023-02-13T04:43:55;37.50;;;16.48;;
28760;SDS011;15917;50.014;8.352;2023-02-13T04:46:20;40.90;;;17.40;;
28760;SDS011;15917;50.014;8.352;2023-02-13T04:48:46;39.72;;;17.10;;
28760;SDS011;15917;50.014;8.352;2023-02-13T04:51:12;39.80;;;17.48;;
28760;SDS011;15917;50.014;8.352;2023-02-13T04:53:37;42.88;;;18.30;;
28760;SDS011;15917;50.014;8.352;2023-02-13T04:56:03;46.45;;;18.77;;
28760;SDS011;15917;50.014;8.352;2023-02-13T04:58:29;44.95;;;18.25;;
28760;SDS011;15917;50.014;8.352;2023-02-13T05:00:54;43.03;;;17.75;;
28760;SDS011;15917;50.014;8.352;2023-02-13T05:03:20;41.10;;;17.63;;
28760;SDS011;15917;50.014;8.352;2023-02-13T05:05:46;41.42;;;17.48;;
28760;SDS011;15917;50.014;8.352;2023-02-13T05:08:12;39.03;;;17.13;;
28760;SDS011;15917;50.014;8.352;2023-02-13T05:10:38;40.13;;;17.15;;
28760;SDS011;15917;50.014;8.352;2023-02-13T05:13:03;41.42;;;17.48;;
28760;SDS011;15917;50.014;8.352;2023-02-13T05:15:29;41.08;;;17.30;;
28760;SDS011;15917;50.014;8.352;2023-02-13T05:17:55;44.33;;;17.88;;
28760;SDS011;15917;50.014;8.352;2023-02-13T05:20:21;38.80;;;17.10;;
28760;SDS011;15917;50.014;8.352;2023-02-13T05:22:47;37.33;;;16.48;;
28760;SDS011;15917;50.014;8.352;2023-02-13T05:25:32;38.97;;;16.17;;
28760;SDS011;15917;50.014;8.352;2023-02-13T05:27:59;43.03;;;17.75;;
28760;SDS011;15917;50.014;8.352;2023-02-13T05:30:24;41.78;;;16.58;;
28760;SDS011;15917;50.014;8.352;2023-02-13T05:32:50;37.28;;;16.23;;
28760;SDS011;15917;50.014;8.352;2023-02-13T05:35:16;38.38;;;16.38;;
28760;SDS011;15917;50.014;8.352;2023-02-13T05:37:43;39.38;;;17.83;;
28760;SDS011;15917;50.014;8.352;2023-02-13T05:40:09;37.97;;;16.80;;
28760;SDS011;15917;50.014;8.352;2023-02-13T05:42:38;41.80;;;17.73;;
28760;SDS011;15917;50.014;8.352;2023-02-13T05:45:04;36.80;;;17.27;;
28760;SDS011;15917;50.014;8.352;2023-02-13T05:47:30;39.80;;;17.92;;
28760;SDS011;15917;50.014;8.352;2023-02-13T05:49:56;37.25;;;17.17;;
28760;SDS011;15917;50.014;8.352;2023-02-13T05:52:22;39.35;;;18.00;;
28760;SDS011;15917;50.014;8.352;2023-02-13T05:54:47;46.00;;;18.77;;
28760;SDS011;15917;50.014;8.352;2023-02-13T05:57:13;44.78;;;19.60;;
28760;SDS011;15917;50.014;8.352;2023-02-13T05:59:39;46.33;;;20.05;;
28760;SDS011;15917;50.014;8.352;2023-02-13T06:02:04;48.47;;;19.77;;
28760;SDS011;15917;50.014;8.352;2023-02-13T06:04:30;52.28;;;20.85;;
28760;SDS011;15917;50.014;8.352;2023-02-13T06:06:55;46.97;;;20.15;;
28760;SDS011;15917;50.014;8.352;2023-02-13T06:09:21;50.65;;;21.67;;
28760;SDS011;15917;50.014;8.352;2023-02-13T06:11:47;46.22;;;21.92;;
28760;SDS011;15917;50.014;8.352;2023-02-13T06:14:13;50.80;;;21.52;;
28760;SDS011;15917;50.014;8.352;2023-02-13T06:16:39;48.97;;;22.30;;
28760;SDS011;15917;50.014;8.352;2023-02-13T06:19:04;48.30;;;20.77;;
28760;SDS011;15917;50.014;8.352;2023-02-13T06:21:30;45.05;;;19.70;;
28760;SDS011;15917;50.014;8.352;2023-02-13T06:23:57;46.90;;;19.15;;
28760;SDS011;15917;50.014;8.352;2023-02-13T06:26:23;44.92;;;18.38;;
28760;SDS011;15917;50.014;8.352;2023-02-13T06:28:49;41.70;;;17.05;;
28760;SDS011;15917;50.014;8.352;2023-02-13T06:31:14;46.30;;;19.33;;
28760;SDS011;15917;50.014;8.352;2023-02-13T06:33:40;42.10;;;19.10;;
28760;SDS011;15917;50.014;8.352;2023-02-13T06:36:06;41.35;;;18.00;;
28760;SDS011;15917;50.014;8.352;2023-02-13T06:38:32;42.85;;;18.75;;
28760;SDS011;15917;50.014;8.352;2023-02-13T06:40:59;43.03;;;17.85;;
28760;SDS011;15917;50.014;8.352;2023-02-13T06:43:26;40.63;;;17.50;;
28760;SDS011;15917;50.014;8.352;2023-02-13T06:45:51;46.45;;;20.52;;
28760;SDS011;15917;50.014;8.352;2023-02-13T06:48:18;41.05;;;18.48;;
28760;SDS011;15917;50.014;8.352;2023-02-13T06:50:43;43.33;;;18.77;;
28760;SDS011;15917;50.014;8.352;2023-02-13T06:53:09;39.95;;;17.67;;
28760;SDS011;15917;50.014;8.352;2023-02-13T06:55:35;40.08;;;17.27;;
28760;SDS011;15917;50.014;8.352;2023-02-13T06:58:00;38.80;;;17.77;;
28760;SDS011;15917;50.014;8.352;2023-02-13T07:00:26;40.35;;;17.05;;
28760;SDS011;15917;50.014;8.352;2023-02-13T07:02:52;41.22;;;18.92;;
28760;SDS011;15917;50.014;8.352;2023-02-13T07:05:18;51.50;;;20.77;;
28760;SDS011;15917;50.014;8.352;2023-02-13T07:07:44;53.22;;;20.13;;
28760;SDS011;15917;50.014;8.352;2023-02-13T07:10:11;44.10;;;19.02;;
28760;SDS011;15917;50.014;8.352;2023-02-13T07:12:38;35.25;;;17.20;;
28760;SDS011;15917;50.014;8.352;2023-02-13T07:15:04;42.60;;;19.95;;
28760;SDS011;15917;50.014;8.352;2023-02-13T07:17:30;41.35;;;18.40;;
28760;SDS011;15917;50.014;8.352;2023-02-13T07:19:56;38.30;;;17.48;;
28760;SDS011;15917;50.014;8.352;2023-02-13T07:22:22;37.63;;;17.42;;
28760;SDS011;15917;50.014;8.352;2023-02-13T07:24:47;40.85;;;17.70;;
28760;SDS011;15917;50.014;8.352;2023-02-13T07:27:13;37.40;;;17.20;;
28760;SDS011;15917;50.014;8.352;2023-02-13T07:29:38;40.95;;;18.42;;
28760;SDS011;15917;50.014;8.352;2023-02-13T07:32:04;34.78;;;16.52;;
28760;SDS011;15917;50.014;8.352;2023-02-13T07:34:31;34.45;;;17.05;;
28760;SDS011;15917;50.014;8.352;2023-02-13T07:36:57;38.10;;;17.00;;
28760;SDS011;15917;50.014;8.352;2023-02-13T07:39:22;42.22;;;16.85;;
28760;SDS011;15917;50.014;8.352;2023-02-13T07:41:49;37.58;;;17.08;;
28760;SDS011;15917;50.014;8.352;2023-02-13T07:44:15;36.00;;;17.77;;
28760;SDS011;15917;50.014;8.352;2023-02-13T07:46:41;38.33;;;16.15;;
28760;SDS011;15917;50.014;8.352;2023-02-13T07:49:06;36.38;;;16.55;;
28760;SDS011;15917;50.014;8.352;2023-02-13T07:51:32;42.53;;;16.85;;
28760;SDS011;15917;50.014;8.352;2023-02-13T07:53:58;31.80;;;15.52;;
28760;SDS011;15917;50.014;8.352;2023-02-13T07:56:23;37.78;;;16.70;;
28760;SDS011;15917;50.014;8.352;2023-02-13T07:58:49;37.72;;;15.18;;
28760;SDS011;15917;50.014;8.352;2023-02-13T08:01:15;37.55;;;16.58;;
28760;SDS011;15917;50.014;8.352;2023-02-13T08:03:41;33.63;;;16.27;;
28760;SDS011;15917;50.014;8.352;2023-02-13T08:06:07;34.72;;;15.65;;
28760;SDS011;15917;50.014;8.352;2023-02-13T08:08:33;32.55;;;15.35;;
28760;SDS011;15917;50.014;8.352;2023-02-13T08:11:04;40.08;;;15.98;;
28760;SDS011;15917;50.014;8.352;2023-02-13T08:13:50;34.83;;;15.15;;
28760;SDS011;15917;50.014;8.352;2023-02-13T08:16:16;33.75;;;16.35;;
28760;SDS011;15917;50.014;8.352;2023-02-13T08:18:42;38.08;;;16.90;;
28760;SDS011;15917;50.014;8.352;2023-02-13T08:21:07;32.03;;;16.02;;
28760;SDS011;15917;50.014;8.352;2023-02-13T08:23:33;30.65;;;13.90;;
28760;SDS011;15917;50.014;8.352;2023-02-13T08:25:59;34.83;;;13.63;;
28760;SDS011;15917;50.014;8.352;2023-02-13T08:28:26;30.33;;;13.40;;
28760;SDS011;15917;50.014;8.352;2023-02-13T08:30:52;32.53;;;15.60;;
28760;SDS011;15917;50.014;8.352;2023-02-13T08:33:18;31.58;;;14.77;;
28760;SDS011;15917;50.014;8.352;2023-02-13T08:35:44;31.25;;;15.38;;
28760;SDS011;15917;50.014;8.352;2023-02-13T08:38:09;34.83;;;16.20;;
28760;SDS011;15917;50.014;8.352;2023-02-13T08:40:35;34.35;;;15.40;;
28760;SDS011;15917;50.014;8.352;2023-02-13T08:43:01;39.08;;;17.42;;
28760;SDS011;15917;50.014;8.352;2023-02-13T08:45:28;32.40;;;15.40;;
28760;SDS011;15917;50.014;8.352;2023-02-13T08:47:55;33.33;;;16.10;;
28760;SDS011;15917;50.014;8.352;2023-02-13T08:50:24;29.95;;;14.90;;
28760;SDS011;15917;50.014;8.352;2023-02-13T08:52:51;30.08;;;15.10;;
28760;SDS011;15917;50.014;8.352;2023-02-13T08:55:17;32.67;;;16.25;;
28760;SDS011;15917;50.014;8.352;2023-02-13T08:57:43;31.98;;;15.70;;
28760;SDS011;15917;50.014;8.352;2023-02-13T09:00:09;27.38;;;14.48;;
28760;SDS011;15917;50.014;8.352;2023-02-13T09:02:35;28.20;;;14.20;;
28760;SDS011;15917;50.014;8.352;2023-02-13T09:05:00;30.60;;;14.13;;
28760;SDS011;15917;50.014;8.352;2023-02-13T09:07:26;30.00;;;15.05;;
28760;SDS011;15917;50.014;8.352;2023-02-13T09:09:51;29.35;;;13.70;;
28760;SDS011;15917;50.014;8.352;2023-02-13T09:12:17;30.42;;;14.82;;
28760;SDS011;15917;50.014;8.352;2023-02-13T09:14:43;28.23;;;14.32;;
28760;SDS011;15917;50.014;8.352;2023-02-13T09:17:08;25.33;;;13.07;;
28760;SDS011;15917;50.014;8.352;2023-02-13T09:19:34;28.35;;;13.48;;
28760;SDS011;15917;50.014;8.352;2023-02-13T09:21:59;27.95;;;13.85;;
28760;SDS011;15917;50.014;8.352;2023-02-13T09:24:25;26.25;;;13.73;;
28760;SDS011;15917;50.014;8.352;2023-02-13T09:26:51;29.63;;;14.63;;
28760;SDS011;15917;50.014;8.352;2023-02-13T09:29:16;23.33;;;12.07;;
28760;SDS011;15917;50.014;8.352;2023-02-13T09:31:42;29.15;;;14.38;;
28760;SDS011;15917;50.014;8.352;2023-02-13T09:34:07;26.77;;;13.23;;
28760;SDS011;15917;50.014;8.352;2023-02-13T09:36:33;29.17;;;14.02;;
28760;SDS011;15917;50.014;8.352;2023-02-13T09:39:00;35.85;;;15.35;;
28760;SDS011;15917;50.014;8.352;2023-02-13T09:41:27;27.20;;;14.93;;
28760;SDS011;15917;50.014;8.352;2023-02-13T09:44:00;30.80;;;14.95;;
28760;SDS011;15917;50.014;8.352;2023-02-13T09:46:58;32.00;;;15.00;;
28760;SDS011;15917;50.014;8.352;2023-02-13T09:49:29;30.00;;;14.07;;
28760;SDS011;15917;50.014;8.352;2023-02-13T09:51:59;23.77;;;12.50;;
28760;SDS011;15917;50.014;8.352;2023-02-13T09:54:25;34.70;;;14.02;;
28760;SDS011;15917;50.014;8.352;2023-02-13T09:57:06;27.38;;;12.50;;
28760;SDS011;15917;50.014;8.352;2023-02-13T09:59:49;29.05;;;13.82;;
28760;SDS011;15917;50.014;8.352;2023-02-13T10:02:46;26.42;;;12.43;;
28760;SDS011;15917;50.014;8.352;2023-02-13T10:16:15;28.50;;;12.15;;
28760;SDS011;15917;50.014;8.352;2023-02-13T10:19:56;27.65;;;11.00;;
28760;SDS011;15917;50.014;8.352;2023-02-13T10:21:52;25.58;;;11.15;;
28760;SDS011;15917;50.014;8.352;2023-02-13T10:24:29;26.35;;;11.93;;
28760;SDS011;15917;50.014;8.352;2023-02-13T10:27:00;20.48;;;10.60;;
28760;SDS011;15917;50.014;8.352;2023-02-13T10:29:41;23.00;;;10.32;;
28760;SDS011;15917;50.014;8.352;2023-02-13T10:32:51;22.77;;;11.40;;
28760;SDS011;15917;50.014;8.352;2023-02-13T10:35:52;27.80;;;10.65;;
28760;SDS011;15917;50.014;8.352;2023-02-13T10:38:27;18.25;;;10.23;;
28760;SDS011;15917;50.014;8.352;2023-02-13T10:44:09;23.02;;;11.40;;
28760;SDS011;15917;50.014;8.352;2023-02-13T10:58:19;23.35;;;10.23;;
28760;SDS011;15917;50.014;8.352;2023-02-13T11:03:30;24.70;;;10.85;;
28760;SDS011;15917;50.014;8.352;2023-02-13T11:05:56;17.10;;;9.05;;
28760;SDS011;15917;50.014;8.352;2023-02-13T11:08:24;20.75;;;10.63;;
28760;SDS011;15917;50.014;8.352;2023-02-13T11:10:54;15.93;;;8.93;;
28760;SDS011;15917;50.014;8.352;2023-02-13T11:13:24;17.90;;;9.88;;
28760;SDS011;15917;50.014;8.352;2023-02-13T11:16:01;17.30;;;9.75;;
28760;SDS011;15917;50.014;8.352;2023-02-13T11:18:28;20.42;;;9.07;;
28760;SDS011;15917;50.014;8.352;2023-02-13T11:23:42;21.40;;;9.75;;
28760;SDS011;15917;50.014;8.352;2023-02-13T11:26:10;21.63;;;10.25;;
28760;SDS011;15917;50.014;8.352;2023-02-13T11:28:53;21.20;;;10.10;;
28760;SDS011;15917;50.014;8.352;2023-02-13T11:31:22;23.45;;;10.30;;
28760;SDS011;15917;50.014;8.352;2023-02-13T11:33:54;22.15;;;10.23;;
28760;SDS011;15917;50.014;8.352;2023-02-13T11:36:22;17.55;;;9.95;;
28760;SDS011;15917;50.014;8.352;2023-02-13T11:38:57;25.83;;;10.63;;
28760;SDS011;15917;50.014;8.352;2023-02-13T11:41:23;21.83;;;9.82;;
28760;SDS011;15917;50.014;8.352;2023-02-13T11:43:54;19.30;;;9.93;;
28760;SDS011;15917;50.014;8.352;2023-02-13T11:46:25;20.77;;;9.25;;
28760;SDS011;15917;50.014;8.352;2023-02-13T11:49:01;23.33;;;9.73;;
28760;SDS011;15917;50.014;8.352;2023-02-13T11:54:30;17.20;;;8.68;;
28760;SDS011;15917;50.014;8.352;2023-02-13T11:56:59;17.15;;;9.13;;
28760;SDS011;15917;50.014;8.352;2023-02-13T11:59:29;23.25;;;10.93;;
28760;SDS011;15917;50.014;8.352;2023-02-13T12:02:01;19.92;;;8.82;;
28760;SDS011;15917;50.014;8.352;2023-02-13T12:04:27;19.00;;;8.18;;
28760;SDS011;15917;50.014;8.352;2023-02-13T12:07:00;16.50;;;8.10;;
28760;SDS011;15917;50.014;8.352;2023-02-13T12:09:34;14.70;;;8.48;;
28760;SDS011;15917;50.014;8.352;2023-02-13T12:12:03;14.85;;;7.55;;
28760;SDS011;15917;50.014;8.352;2023-02-13T12:14:34;16.35;;;7.88;;
28760;SDS011;15917;50.014;8.352;2023-02-13T12:17:06;17.48;;;8.88;;
28760;SDS011;15917;50.014;8.352;2023-02-13T12:28:06;17.42;;;8.73;;
28760;SDS011;15917;50.014;8.352;2023-02-13T12:36:15;20.42;;;9.15;;
28760;SDS011;15917;50.014;8.352;2023-02-13T12:38:59;15.65;;;8.75;;
28760;SDS011;15917;50.014;8.352;2023-02-13T12:41:34;20.48;;;8.90;;
28760;SDS011;15917;50.014;8.352;2023-02-13T12:44:10;18.90;;;8.77;;
28760;SDS011;15917;50.014;8.352;2023-02-13T12:52:52;16.90;;;7.97;;
28760;SDS011;15917;50.014;8.352;2023-02-13T13:06:37;15.38;;;7.88;;
28760;SDS011;15917;50.014;8.352;2023-02-13T13:09:18;16.25;;;7.72;;
28760;SDS011;15917;50.014;8.352;2023-02-13T13:17:10;15.23;;;7.47;;
28760;SDS011;15917;50.014;8.352;2023-02-13T13:19:52;13.90;;;7.65;;
28760;SDS011;15917;50.014;8.352;2023-02-13T13:22:31;17.15;;;6.75;;
28760;SDS011;15917;50.014;8.352;2023-02-13T13:27:44;12.55;;;7.45;;
28760;SDS011;15917;50.014;8.352;2023-02-13T13:30:22;11.63;;;6.72;;
28760;SDS011;15917;50.014;8.352;2023-02-13T13:32:50;13.75;;;7.50;;
28760;SDS011;15917;50.014;8.352;2023-02-13T13:35:20;15.70;;;8.25;;
28760;SDS011;15917;50.014;8.352;2023-02-13T13:37:59;13.10;;;7.32;;
28760;SDS011;15917;50.014;8.352;2023-02-13T13:40:46;15.85;;;8.07;;
28760;SDS011;15917;50.014;8.352;2023-02-13T13:46:30;10.95;;;6.13;;
28760;SDS011;15917;50.014;8.352;2023-02-13T13:52:24;19.58;;;7.57;;
28760;SDS011;15917;50.014;8.352;2023-02-13T13:54:52;14.32;;;7.10;;
28760;SDS011;15917;50.014;8.352;2023-02-13T14:05:23;12.85;;;7.10;;
28760;SDS011;15917;50.014;8.352;2023-02-13T14:11:06;12.30;;;6.03;;
28760;SDS011;15917;50.014;8.352;2023-02-13T14:13:57;18.02;;;7.00;;
28760;SDS011;15917;50.014;8.352;2023-02-13T14:16:36;13.38;;;7.55;;
28760;SDS011;15917;50.014;8.352;2023-02-13T14:22:24;11.07;;;6.25;;
28760;SDS011;15917;50.014;8.352;2023-02-13T14:27:58;12.43;;;5.55;;
28760;SDS011;15917;50.014;8.352;2023-02-13T14:30:32;9.85;;;5.57;;
28760;SDS011;15917;50.014;8.352;2023-02-13T14:33:02;9.82;;;5.55;;
28760;SDS011;15917;50.014;8.352;2023-02-13T14:35:31;11.20;;;5.20;;
28760;SDS011;15917;50.014;8.352;2023-02-13T14:38:02;13.27;;;5.57;;
28760;SDS011;15917;50.014;8.352;2023-02-13T14:40:46;9.93;;;4.82;;
28760;SDS011;15917;50.014;8.352;2023-02-13T14:51:21;10.20;;;3.50;;
28760;SDS011;15917;50.014;8.352;2023-02-13T14:53:55;7.47;;;2.33;;
28760;SDS011;15917;50.014;8.352;2023-02-13T14:56:29;7.90;;;2.33;;
28760;SDS011;15917;50.014;8.352;2023-02-13T14:59:00;5.78;;;2.05;;
28760;SDS011;15917;50.014;8.352;2023-02-13T15:01:34;7.15;;;2.00;;
28760;SDS011;15917;50.014;8.352;2023-02-13T15:04:21;6.63;;;2.17;;
28760;SDS011;15917;50.014;8.352;2023-02-13T15:06:53;11.93;;;1.90;;
28760;SDS011;15917;50.014;8.352;2023-02-13T15:12:03;4.85;;;2.15;;
28760;SDS011;15917;50.014;8.352;2023-02-13T15:14:30;8.23;;;2.53;;
28760;SDS011;15917;50.014;8.352;2023-02-13T15:16:58;6.72;;;2.60;;
28760;SDS011;15917;50.014;8.352;2023-02-13T15:19:48;5.63;;;2.08;;
28760;SDS011;15917;50.014;8.352;2023-02-13T15:22:16;6.20;;;2.15;;
28760;SDS011;15917;50.014;8.352;2023-02-13T15:25:03;4.85;;;2.10;;
28760;SDS011;15917;50.014;8.352;2023-02-13T15:30:02;3.88;;;1.73;;
28760;SDS011;15917;50.014;8.352;2023-02-13T15:32:43;8.90;;;1.77;;
28760;SDS011;15917;50.014;8.352;2023-02-13T15:37:48;4.20;;;1.90;;
28760;SDS011;15917;50.014;8.352;2023-02-13T15:40:15;3.67;;;1.85;;
28760;SDS011;15917;50.014;8.352;2023-02-13T15:42:47;9.00;;;1.88;;
28760;SDS011;15917;50.014;8.352;2023-02-13T15:45:14;9.25;;;1.90;;
28760;SDS011;15917;50.014;8.352;2023-02-13T15:47:42;3.08;;;1.88;;
28760;SDS011;15917;50.014;8.352;2023-02-13T15:50:33;3.78;;;1.85;;
28760;SDS011;15917;50.014;8.352;2023-02-13T15:52:59;3.92;;;1.70;;
28760;SDS011;15917;50.014;8.352;2023-02-13T15:55:28;3.53;;;1.88;;
28760;SDS011;15917;50.014;8.352;2023-02-13T15:57:57;5.95;;;1.95;;
28760;SDS011;15917;50.014;8.352;2023-02-13T16:02:53;4.22;;;1.85;;
28760;SDS011;15917;50.014;8.352;2023-02-13T16:05:20;3.03;;;1.95;;
28760;SDS011;15917;50.014;8.352;2023-02-13T16:10:31;5.73;;;2.57;;
28760;SDS011;15917;50.014;8.352;2023-02-13T16:12:59;6.22;;;2.60;;
28760;SDS011;15917;50.014;8.352;2023-02-13T16:15:28;8.57;;;4.13;;
28760;SDS011;15917;50.014;8.352;2023-02-13T16:17:56;9.13;;;5.18;;
28760;SDS011;15917;50.014;8.352;2023-02-13T16:20:24;9.90;;;4.80;;
28760;SDS011;15917;50.014;8.352;2023-02-13T16:22:52;14.70;;;4.25;;
28760;SDS011;15917;50.014;8.352;2023-02-13T16:25:22;14.68;;;4.43;;
28760;SDS011;15917;50.014;8.352;2023-02-13T16:27:58;11.60;;;4.78;;
28760;SDS011;15917;50.014;8.352;2023-02-13T16:30:33;11.32;;;4.55;;
28760;SDS011;15917;50.014;8.352;2023-02-13T16:35:39;13.63;;;6.75;;
28760;SDS011;15917;50.014;8.352;2023-02-13T16:38:23;9.25;;;4.65;;
28760;SDS011;15917;50.014;8.352;2023-02-13T16:41:02;8.63;;;3.47;;
28760;SDS011;15917;50.014;8.352;2023-02-13T16:43:44;7.45;;;4.00;;
28760;SDS011;15917;50.014;8.352;2023-02-13T16:53:55;6.60;;;3.92;;
28760;SDS011;15917;50.014;8.352;2023-02-13T16:58:48;14.68;;;4.30;;
28760;SDS011;15917;50.014;8.352;2023-02-13T17:01:13;7.28;;;3.42;;
28760;SDS011;15917;50.014;8.352;2023-02-13T17:03:42;10.55;;;2.97;;
28760;SDS011;15917;50.014;8.352;2023-02-13T17:06:07;16.77;;;3.45;;
28760;SDS011;15917;50.014;8.352;2023-02-13T17:08:34;10.07;;;3.42;;
28760;SDS011;15917;50.014;8.352;2023-02-13T17:11:04;5.43;;;3.50;;
28760;SDS011;15917;50.014;8.352;2023-02-13T17:13:31;6.65;;;2.67;;
28760;SDS011;15917;50.014;8.352;2023-02-13T17:15:58;6.72;;;3.13;;
28760;SDS011;15917;50.014;8.352;2023-02-13T17:18:24;7.82;;;3.85;;
28760;SDS011;15917;50.014;8.352;2023-02-13T17:20:50;7.05;;;3.75;;
28760;SDS011;15917;50.014;8.352;2023-02-13T17:23:17;11.98;;;4.32;;
28760;SDS011;15917;50.014;8.352;2023-02-13T17:25:46;9.38;;;4.28;;
28760;SDS011;15917;50.014;8.352;2023-02-13T17:28:17;8.57;;;4.40;;
28760;SDS011;15917;50.014;8.352;2023-02-13T17:30:48;13.70;;;4.13;;
28760;SDS011;15917;50.014;8.352;2023-02-13T17:35:49;7.85;;;4.35;;
28760;SDS011;15917;50.014;8.352;2023-02-13T17:38:15;13.55;;;3.90;;
28760;SDS011;15917;50.014;8.352;2023-02-13T17:40:41;8.82;;;4.13;;